createdAt,value
2019-04-30T00:01:59.880Z,9.37
2019-04-30T00:04:37.074Z,10.13
2019-04-30T00:07:01.174Z,10.47
2019-04-30T00:09:31.703Z,9.57
2019-04-30T00:12:01.308Z,8.73
2019-04-30T00:14:37.143Z,9.50
2019-04-30T00:17:00.568Z,9.20
2019-04-30T00:19:28.666Z,9.03
2019-04-30T00:22:00.093Z,9.20
2019-04-30T00:24:26.525Z,9.00
2019-04-30T00:26:56.412Z,10.30
2019-04-30T00:29:30.200Z,9.87
2019-04-30T00:31:59.281Z,10.63
2019-04-30T00:34:26.002Z,8.90
2019-04-30T00:36:55.865Z,8.03
2019-04-30T00:39:27.038Z,9.73
2019-04-30T00:41:54.678Z,8.57
2019-04-30T00:44:24.894Z,10.40
2019-04-30T00:46:55.779Z,8.90
2019-04-30T00:49:24.870Z,8.20
2019-04-30T00:51:56.671Z,9.13
2019-04-30T00:54:29.361Z,8.97
2019-04-30T00:56:57.486Z,8.57
2019-04-30T00:59:25.030Z,8.03
2019-04-30T01:02:30.796Z,8.53
2019-04-30T01:05:00.169Z,9.83
2019-04-30T01:07:26.469Z,9.13
2019-04-30T01:09:55.280Z,7.77
2019-04-30T01:12:29.013Z,8.97
2019-04-30T01:14:53.575Z,9.17
2019-04-30T01:17:21.461Z,9.63
2019-04-30T01:19:51.182Z,7.83
2019-04-30T01:22:27.793Z,8.20
2019-04-30T01:24:49.851Z,8.00
2019-04-30T01:27:19.096Z,8.50
2019-04-30T01:29:48.717Z,8.50
2019-04-30T01:32:20.827Z,8.20
2019-04-30T01:34:49.831Z,8.63
2019-04-30T01:37:20.255Z,10.43
2019-04-30T01:39:49.227Z,9.10
2019-04-30T01:42:18.517Z,10.20
2019-04-30T01:44:53.531Z,9.20
2019-04-30T01:47:25.354Z,9.40
2019-04-30T01:49:55.945Z,9.37
2019-04-30T01:52:22.201Z,10.27
2019-04-30T01:54:50.829Z,9.53
2019-04-30T01:57:50.938Z,9.50
2019-04-30T02:00:29.315Z,9.37
2019-04-30T02:03:00.516Z,9.83
2019-04-30T02:05:29.802Z,9.63
2019-04-30T02:07:59.512Z,9.63
2019-04-30T02:10:29.739Z,9.93
2019-04-30T02:12:59.103Z,10.27
2019-04-30T02:15:29.441Z,9.60
2019-04-30T02:17:59.597Z,9.37
2019-04-30T02:20:28.880Z,9.20
2019-04-30T02:22:58.777Z,9.50
2019-04-30T02:25:29.383Z,10.03
2019-04-30T02:27:59.007Z,9.13
2019-04-30T02:30:30.493Z,10.13
2019-04-30T02:33:00.114Z,10.93
2019-04-30T02:35:43.391Z,9.87
2019-04-30T02:38:19.850Z,11.03
2019-04-30T02:40:49.850Z,10.77
2019-04-30T02:43:20.395Z,10.00
2019-04-30T02:45:51.006Z,9.30
2019-04-30T02:48:21.637Z,10.87
2019-04-30T02:50:51.016Z,10.50
2019-04-30T02:54:20.269Z,9.83
2019-04-30T02:56:59.554Z,11.17
2019-04-30T02:59:26.710Z,9.87
2019-04-30T03:01:54.678Z,10.47
2019-04-30T03:04:22.517Z,10.67
2019-04-30T03:06:50.555Z,11.07
2019-04-30T03:09:20.146Z,9.73
2019-04-30T03:11:49.896Z,9.93
2019-04-30T03:14:19.885Z,9.40
2019-04-30T03:17:00.331Z,10.53
2019-04-30T03:19:46.124Z,9.53
2019-04-30T03:22:16.856Z,10.37
2019-04-30T03:24:44.563Z,10.77
2019-04-30T03:27:12.360Z,10.00
2019-04-30T03:29:41.199Z,11.30
2019-04-30T03:32:13.361Z,10.50
2019-04-30T03:34:41.847Z,10.63
2019-04-30T03:37:09.935Z,11.17
2019-04-30T03:39:40.020Z,11.23
2019-04-30T03:42:09.919Z,11.73
2019-04-30T03:44:40.167Z,10.67
2019-04-30T03:47:07.225Z,10.90
2019-04-30T03:49:35.206Z,10.33
2019-04-30T03:52:03.010Z,12.57
2019-04-30T03:54:30.729Z,11.13
2019-04-30T03:57:00.898Z,11.73
2019-04-30T03:59:30.094Z,11.30
2019-04-30T04:02:33.040Z,11.23
2019-04-30T04:05:11.011Z,11.60
2019-04-30T04:07:46.209Z,10.27
2019-04-30T04:10:40.371Z,11.07
2019-04-30T04:13:10.366Z,12.23
2019-04-30T04:15:39.978Z,11.97
2019-04-30T04:18:10.620Z,14.60
2019-04-30T04:20:39.928Z,12.43
2019-04-30T04:23:09.495Z,11.47
2019-04-30T04:25:39.697Z,13.00
2019-04-30T04:28:06.583Z,12.70
2019-04-30T04:30:34.676Z,12.60
2019-04-30T04:33:02.461Z,13.33
2019-04-30T04:35:30.427Z,12.70
2019-04-30T04:38:00.414Z,12.97
2019-04-30T04:40:30.299Z,12.80
2019-04-30T04:43:00.049Z,12.73
2019-04-30T04:45:30.352Z,12.33
2019-04-30T04:47:59.763Z,14.80
2019-04-30T04:50:30.030Z,14.23
2019-04-30T04:52:59.276Z,13.67
2019-04-30T04:55:26.611Z,15.80
2019-04-30T04:57:54.683Z,15.63
2019-04-30T05:00:22.535Z,15.77
2019-04-30T05:03:04.813Z,18.60
2019-04-30T05:05:32.730Z,15.80
2019-04-30T05:08:00.528Z,16.73
2019-04-30T05:10:29.212Z,17.00
2019-04-30T05:12:59.098Z,15.77
2019-04-30T05:15:26.858Z,22.67
2019-04-30T05:17:54.749Z,17.10
2019-04-30T05:20:22.461Z,20.53
2019-04-30T05:22:50.180Z,24.70
2019-04-30T05:25:18.673Z,23.37
2019-04-30T05:27:46.606Z,26.07
2019-04-30T05:30:14.318Z,30.73
2019-04-30T05:32:42.161Z,29.77
2019-04-30T05:35:10.600Z,29.60
2019-04-30T05:37:38.597Z,30.73
2019-04-30T05:40:09.129Z,26.10
2019-04-30T05:42:38.700Z,27.27
2019-04-30T05:45:09.129Z,27.60
2019-04-30T05:47:38.729Z,29.80
2019-04-30T05:50:08.950Z,28.07
2019-04-30T05:52:39.498Z,31.47
2019-04-30T05:55:08.535Z,27.27
2019-04-30T05:57:36.581Z,29.40
2019-04-30T06:00:05.728Z,27.30
2019-04-30T06:02:34.272Z,25.40
2019-04-30T06:05:02.293Z,28.60
2019-04-30T06:07:30.065Z,26.37
2019-04-30T06:10:06.752Z,28.77
2019-04-30T06:13:00.134Z,26.33
2019-04-30T06:15:41.625Z,28.17
2019-04-30T06:18:13.566Z,27.27
2019-04-30T06:20:39.043Z,26.37
2019-04-30T06:23:06.947Z,28.37
2019-04-30T06:25:54.887Z,25.53
2019-04-30T06:28:04.734Z,28.93
2019-04-30T06:30:33.108Z,26.73
2019-04-30T06:33:01.252Z,25.80
2019-04-30T06:35:29.565Z,23.87
2019-04-30T06:37:58.959Z,22.50
2019-04-30T06:40:29.243Z,23.07
2019-04-30T06:43:00.397Z,21.90
2019-04-30T06:45:29.026Z,20.63
2019-04-30T06:47:58.789Z,21.37
2019-04-30T06:50:26.713Z,19.83
2019-04-30T06:52:58.748Z,19.90
2019-04-30T06:55:25.835Z,20.50
2019-04-30T06:57:53.629Z,23.03
2019-04-30T07:00:35.700Z,21.13
2019-04-30T07:03:04.361Z,20.30
2019-04-30T07:05:32.086Z,20.70
2019-04-30T07:08:19.013Z,19.23
2019-04-30T07:10:55.702Z,18.57
2019-04-30T07:13:24.246Z,17.57
2019-04-30T07:15:51.977Z,16.90
2019-04-30T07:18:19.979Z,18.03
2019-04-30T07:20:48.647Z,19.40
2019-04-30T07:23:18.693Z,19.80
2019-04-30T07:25:46.342Z,19.10
2019-04-30T07:28:14.228Z,19.00
2019-04-30T07:30:41.961Z,19.30
2019-04-30T07:33:09.858Z,20.67
2019-04-30T07:35:39.767Z,21.40
2019-04-30T07:38:09.214Z,19.20
2019-04-30T07:40:38.935Z,18.43
2019-04-30T07:43:08.890Z,20.13
2019-04-30T07:45:36.217Z,20.83
2019-04-30T07:48:04.068Z,19.70
2019-04-30T07:50:32.474Z,20.80
2019-04-30T07:53:05.740Z,19.50
2019-04-30T07:55:30.733Z,20.80
2019-04-30T07:57:59.112Z,20.60
2019-04-30T08:00:30.998Z,21.50
2019-04-30T08:03:19.963Z,21.17
2019-04-30T08:06:00.188Z,21.50
2019-04-30T08:08:30.174Z,22.50
2019-04-30T08:10:59.175Z,23.03
2019-04-30T08:13:32.013Z,21.53
2019-04-30T08:15:59.659Z,21.87
2019-04-30T08:18:29.508Z,24.07
2019-04-30T08:20:58.679Z,23.90
2019-04-30T08:23:34.990Z,22.83
2019-04-30T08:25:58.630Z,23.17
2019-04-30T08:28:30.163Z,23.90
2019-04-30T08:30:58.943Z,23.30
2019-04-30T08:33:29.076Z,22.47
2019-04-30T08:35:56.744Z,24.00
2019-04-30T08:38:24.639Z,25.43
2019-04-30T08:40:56.187Z,25.40
2019-04-30T08:43:22.428Z,23.97
2019-04-30T08:45:50.479Z,24.53
2019-04-30T08:48:18.992Z,23.37
2019-04-30T08:50:46.878Z,25.23
2019-04-30T08:53:26.754Z,24.67
2019-04-30T08:55:44.610Z,25.10
2019-04-30T08:58:15.067Z,25.70
2019-04-30T09:00:42.102Z,26.80
2019-04-30T09:03:09.933Z,25.43
2019-04-30T09:05:55.867Z,26.67
2019-04-30T09:08:23.863Z,25.47
2019-04-30T09:10:51.617Z,30.30
2019-04-30T09:13:19.644Z,26.60
2019-04-30T09:15:49.271Z,28.93
2019-04-30T09:18:19.003Z,26.53
2019-04-30T09:20:46.988Z,28.80
2019-04-30T09:23:14.865Z,28.40
2019-04-30T09:25:42.634Z,25.77
2019-04-30T09:28:10.540Z,27.90
2019-04-30T09:30:38.711Z,28.13
2019-04-30T09:33:06.593Z,27.20
2019-04-30T09:35:35.450Z,27.00
2019-04-30T09:38:03.145Z,32.70
2019-04-30T09:40:32.616Z,28.80
2019-04-30T09:43:00.630Z,31.03
2019-04-30T09:45:28.665Z,26.23
2019-04-30T09:47:56.509Z,29.17
2019-04-30T09:50:24.517Z,31.57
2019-04-30T09:52:52.346Z,31.43
2019-04-30T09:55:20.553Z,29.97
2019-04-30T09:57:48.860Z,31.37
2019-04-30T10:00:19.328Z,32.23
2019-04-30T10:02:48.716Z,34.10
2019-04-30T10:05:18.760Z,34.33
2019-04-30T10:07:46.883Z,30.50
2019-04-30T10:10:18.843Z,33.63
2019-04-30T10:12:49.176Z,31.40
2019-04-30T10:15:30.836Z,33.10
2019-04-30T10:18:00.429Z,32.83
2019-04-30T10:20:40.646Z,35.10
2019-04-30T10:23:10.318Z,31.73
2019-04-30T10:25:38.946Z,32.80
2019-04-30T10:28:06.859Z,32.30
2019-04-30T10:30:35.655Z,30.90
2019-04-30T10:33:04.928Z,30.93
2019-04-30T10:35:32.739Z,29.53
2019-04-30T10:38:00.422Z,31.30
2019-04-30T10:40:28.716Z,29.90
2019-04-30T10:42:58.562Z,26.73
2019-04-30T10:45:28.649Z,26.17
2019-04-30T10:47:56.171Z,25.10
2019-04-30T10:50:25.782Z,29.80
2019-04-30T10:52:53.628Z,25.53
2019-04-30T10:55:21.322Z,25.77
2019-04-30T10:57:49.523Z,24.50
2019-04-30T11:00:20.175Z,25.33
2019-04-30T11:02:49.641Z,26.20
2019-04-30T11:05:18.806Z,22.47
2019-04-30T11:07:49.428Z,23.07
2019-04-30T11:10:18.913Z,21.60
2019-04-30T11:12:46.823Z,22.07
2019-04-30T11:15:14.975Z,21.47
2019-04-30T11:17:42.869Z,23.73
2019-04-30T11:20:11.339Z,21.83
2019-04-30T11:22:39.610Z,22.83
2019-04-30T11:25:09.777Z,22.47
2019-04-30T11:27:40.192Z,21.17
2019-04-30T11:30:18.499Z,22.90
2019-04-30T11:32:37.977Z,22.23
2019-04-30T11:35:06.239Z,21.03
2019-04-30T11:37:33.933Z,22.33
2019-04-30T11:40:01.686Z,22.43
2019-04-30T11:42:32.179Z,21.10
2019-04-30T11:44:59.872Z,25.80
2019-04-30T11:47:35.781Z,20.97
2019-04-30T11:50:08.122Z,23.00
2019-04-30T11:52:37.775Z,28.30
2019-04-30T11:55:09.673Z,26.47
2019-04-30T11:57:39.580Z,26.67
2019-04-30T12:00:10.822Z,25.53
2019-04-30T12:02:40.629Z,20.93
2019-04-30T12:05:10.200Z,24.93
2019-04-30T12:07:59.759Z,23.83
2019-04-30T12:10:39.196Z,24.07
2019-04-30T12:13:22.930Z,22.67
2019-04-30T12:15:51.470Z,22.80
2019-04-30T12:18:19.242Z,24.87
2019-04-30T12:20:47.065Z,24.00
2019-04-30T12:23:15.020Z,22.80
2019-04-30T12:25:43.184Z,22.27
2019-04-30T12:28:10.995Z,22.93
2019-04-30T12:30:40.551Z,24.10
2019-04-30T12:33:09.091Z,28.73
2019-04-30T12:35:36.990Z,22.53
2019-04-30T12:38:04.682Z,23.73
2019-04-30T12:40:32.580Z,23.37
2019-04-30T12:43:00.286Z,28.97
2019-04-30T12:45:29.405Z,27.87
2019-04-30T12:48:01.252Z,23.40
2019-04-30T12:50:39.306Z,23.33
2019-04-30T12:53:10.370Z,22.27
2019-04-30T12:55:46.698Z,24.07
2019-04-30T12:58:14.602Z,21.67
2019-04-30T13:00:42.524Z,25.50
2019-04-30T13:03:10.295Z,21.93
2019-04-30T13:05:39.574Z,26.63
2019-04-30T13:08:09.583Z,23.00
2019-04-30T13:10:37.987Z,23.67
2019-04-30T13:13:06.633Z,22.73
2019-04-30T13:15:34.720Z,21.87
2019-04-30T13:18:02.598Z,22.37
2019-04-30T13:20:30.402Z,21.43
2019-04-30T13:22:59.727Z,20.87
2019-04-30T13:25:34.173Z,21.07
2019-04-30T13:28:02.525Z,20.70
2019-04-30T13:30:31.044Z,20.97
2019-04-30T13:33:05.522Z,21.80
2019-04-30T13:35:33.540Z,20.50
2019-04-30T13:38:22.935Z,22.10
2019-04-30T13:41:05.683Z,22.80
2019-04-30T13:44:09.645Z,20.10
2019-04-30T13:46:39.558Z,20.10
2019-04-30T13:49:07.509Z,23.60
2019-04-30T13:51:35.446Z,22.17
2019-04-30T13:54:03.541Z,22.30
2019-04-30T13:56:31.289Z,24.47
2019-04-30T13:58:59.028Z,23.73
2019-04-30T14:01:29.250Z,20.93
2019-04-30T14:04:08.890Z,21.23
2019-04-30T14:06:41.578Z,27.97
2019-04-30T14:09:18.810Z,23.57
2019-04-30T14:11:46.622Z,21.70
2019-04-30T14:14:14.551Z,24.87
2019-04-30T14:16:43.913Z,25.57
2019-04-30T14:19:13.326Z,24.03
2019-04-30T14:21:41.074Z,22.73
2019-04-30T14:24:09.452Z,23.73
2019-04-30T14:26:39.113Z,26.20
2019-04-30T14:29:07.205Z,27.30
2019-04-30T14:31:34.973Z,28.40
2019-04-30T14:34:02.761Z,27.73
2019-04-30T14:36:30.838Z,26.57
2019-04-30T14:39:13.087Z,25.87
2019-04-30T14:41:31.791Z,25.30
2019-04-30T14:44:04.610Z,23.70
2019-04-30T14:47:00.071Z,24.93
2019-04-30T14:50:01.243Z,25.40
2019-04-30T14:52:19.356Z,27.87
2019-04-30T14:54:58.791Z,24.67
2019-04-30T14:57:44.925Z,25.80
2019-04-30T15:00:36.113Z,27.00
2019-04-30T15:03:09.478Z,27.43
2019-04-30T15:05:48.196Z,27.30
2019-04-30T15:08:08.886Z,27.27
2019-04-30T15:10:36.755Z,26.50
2019-04-30T15:13:04.748Z,28.47
2019-04-30T15:15:32.522Z,30.63
2019-04-30T15:18:00.485Z,27.77
2019-04-30T15:20:29.651Z,27.97
2019-04-30T15:23:29.582Z,31.07
2019-04-30T15:25:58.649Z,27.70
2019-04-30T15:28:32.515Z,28.10
2019-04-30T15:30:56.359Z,38.03
2019-04-30T15:34:02.939Z,31.63
2019-04-30T15:36:29.330Z,26.97
2019-04-30T15:39:02.241Z,26.90
2019-04-30T15:41:31.033Z,28.13
2019-04-30T15:43:58.999Z,26.03
2019-04-30T15:46:27.077Z,27.40
2019-04-30T15:48:54.854Z,24.63
2019-04-30T15:51:22.726Z,27.17
2019-04-30T15:53:50.468Z,25.93
2019-04-30T15:56:19.273Z,23.90
2019-04-30T15:59:08.897Z,24.90
2019-04-30T16:01:37.721Z,23.93
2019-04-30T16:04:10.077Z,25.33
2019-04-30T16:06:38.485Z,27.03
2019-04-30T16:09:09.527Z,25.10
2019-04-30T16:12:04.887Z,24.93
2019-04-30T16:14:37.165Z,22.63
2019-04-30T16:17:15.237Z,23.10
2019-04-30T16:19:43.217Z,23.23
2019-04-30T16:22:10.978Z,22.73
2019-04-30T16:24:38.808Z,22.17
2019-04-30T16:27:06.525Z,23.07
2019-04-30T16:29:34.389Z,20.77
2019-04-30T16:32:02.143Z,22.90
2019-04-30T16:34:30.505Z,23.93
2019-04-30T16:37:00.442Z,23.83
2019-04-30T16:39:28.872Z,24.20
2019-04-30T16:41:56.779Z,20.50
2019-04-30T16:44:25.186Z,23.63
2019-04-30T16:46:53.045Z,22.80
2019-04-30T16:49:20.942Z,23.13
2019-04-30T16:51:50.117Z,23.23
2019-04-30T16:54:18.607Z,23.47
2019-04-30T16:56:49.641Z,22.50
2019-04-30T16:59:20.494Z,24.97
2019-04-30T17:01:57.551Z,24.70
2019-04-30T17:04:24.225Z,26.67
2019-04-30T17:07:03.750Z,23.63
2019-04-30T17:09:37.554Z,25.30
2019-04-30T17:12:17.087Z,22.50
2019-04-30T17:14:44.989Z,21.60
2019-04-30T17:17:14.578Z,20.70
2019-04-30T17:19:42.561Z,23.67
2019-04-30T17:22:10.426Z,24.10
2019-04-30T17:24:39.400Z,21.03
2019-04-30T17:27:18.673Z,23.33
2019-04-30T17:29:39.030Z,25.40
2019-04-30T17:32:08.398Z,25.80
2019-04-30T17:34:38.837Z,23.20
2019-04-30T17:37:06.413Z,23.63
2019-04-30T17:39:34.329Z,21.17
2019-04-30T17:42:02.213Z,19.27
2019-04-30T17:44:29.990Z,19.93
2019-04-30T17:46:59.972Z,19.53
2019-04-30T17:49:27.572Z,23.60
2019-04-30T17:51:55.441Z,20.23
2019-04-30T17:54:23.173Z,21.90
2019-04-30T17:56:51.176Z,18.90
2019-04-30T17:59:18.930Z,19.33
2019-04-30T18:01:52.927Z,22.87
2019-04-30T18:04:22.272Z,25.60
2019-04-30T18:06:50.661Z,21.40
2019-04-30T18:09:19.644Z,23.37
2019-04-30T18:11:49.430Z,24.40
2019-04-30T18:14:18.713Z,23.10
2019-04-30T18:16:48.488Z,23.00
2019-04-30T18:19:38.655Z,23.83
2019-04-30T18:22:11.145Z,21.60
2019-04-30T18:25:07.345Z,24.00
2019-04-30T18:27:46.170Z,21.70
2019-04-30T18:30:16.690Z,22.63
2019-04-30T18:32:44.400Z,21.90
2019-04-30T18:35:12.116Z,20.70
2019-04-30T18:37:41.976Z,21.73
2019-04-30T18:40:09.884Z,22.43
2019-04-30T18:42:39.489Z,23.83
2019-04-30T18:45:09.148Z,21.30
2019-04-30T18:47:37.398Z,22.10
2019-04-30T18:50:09.301Z,21.30
2019-04-30T18:52:37.676Z,21.07
2019-04-30T18:55:05.904Z,22.50
2019-04-30T18:57:33.949Z,19.27
2019-04-30T19:00:01.876Z,20.40
2019-04-30T19:02:29.584Z,19.63
2019-04-30T19:04:59.440Z,21.53
2019-04-30T19:07:32.976Z,21.17
2019-04-30T19:10:38.792Z,21.50
2019-04-30T19:13:24.411Z,21.70
2019-04-30T19:16:30.450Z,21.60
2019-04-30T19:19:05.583Z,19.70
2019-04-30T19:21:34.231Z,20.00
2019-04-30T19:24:02.123Z,19.73
2019-04-30T19:26:31.832Z,18.83
2019-04-30T19:29:01.564Z,18.13
2019-04-30T19:31:29.651Z,21.30
2019-04-30T19:33:58.856Z,19.33
2019-04-30T19:36:34.939Z,19.83
2019-04-30T19:38:56.474Z,18.57
2019-04-30T19:41:24.300Z,20.73
2019-04-30T19:43:52.026Z,21.67
2019-04-30T19:46:19.859Z,19.37
2019-04-30T19:48:50.512Z,22.87
2019-04-30T19:51:19.759Z,20.90
2019-04-30T19:53:48.946Z,21.80
2019-04-30T19:56:18.296Z,22.33
2019-04-30T19:58:59.194Z,20.10
2019-04-30T20:01:17.352Z,19.93
2019-04-30T20:03:45.432Z,20.70
2019-04-30T20:06:13.243Z,21.07
2019-04-30T20:08:41.154Z,20.23
2019-04-30T20:11:09.317Z,22.50
2019-04-30T20:13:40.303Z,23.27
2019-04-30T20:16:09.597Z,22.30
2019-04-30T20:18:39.023Z,24.57
2019-04-30T20:21:11.136Z,21.70
2019-04-30T20:23:39.013Z,21.87
2019-04-30T20:26:06.975Z,23.83
2019-04-30T20:28:41.545Z,24.30
2019-04-30T20:31:04.379Z,26.87
2019-04-30T20:33:32.221Z,26.97
2019-04-30T20:35:59.947Z,26.20
2019-04-30T20:38:45.048Z,26.67
2019-04-30T20:41:12.771Z,30.83
2019-04-30T20:43:40.459Z,27.83
2019-04-30T20:46:08.681Z,26.50
2019-04-30T20:48:36.586Z,28.23
2019-04-30T20:51:04.286Z,27.47
2019-04-30T20:53:32.101Z,27.37
2019-04-30T20:55:59.793Z,27.67
2019-04-30T20:58:27.615Z,29.57
2019-04-30T21:01:03.487Z,27.83
2019-04-30T21:03:25.247Z,29.27
2019-04-30T21:05:53.180Z,29.23
2019-04-30T21:08:20.888Z,27.10
2019-04-30T21:10:50.330Z,26.60
2019-04-30T21:13:19.374Z,28.70
2019-04-30T21:15:49.467Z,27.60
2019-04-30T21:18:17.057Z,29.50
2019-04-30T21:20:46.610Z,28.43
2019-04-30T21:23:14.515Z,32.80
2019-04-30T21:25:42.294Z,29.10
2019-04-30T21:28:10.126Z,26.93
2019-04-30T21:30:38.014Z,28.13
2019-04-30T21:33:14.796Z,32.80
2019-04-30T21:35:50.713Z,30.77
2019-04-30T21:38:19.423Z,32.00
2019-04-30T21:40:49.142Z,29.63
2019-04-30T21:43:17.108Z,31.50
2019-04-30T21:45:44.826Z,29.53
2019-04-30T21:48:12.569Z,31.37
2019-04-30T21:50:40.499Z,30.43
2019-04-30T21:53:09.878Z,32.97
2019-04-30T21:55:39.817Z,30.20
2019-04-30T21:58:09.556Z,32.43
2019-04-30T22:00:55.951Z,31.43
2019-04-30T22:03:23.957Z,30.17
2019-04-30T22:05:53.297Z,30.17
2019-04-30T22:08:20.988Z,27.77
2019-04-30T22:10:48.901Z,35.00
2019-04-30T22:13:18.392Z,28.53
2019-04-30T22:15:46.234Z,29.60
2019-04-30T22:18:14.155Z,27.57
2019-04-30T22:20:41.867Z,26.97
2019-04-30T22:23:09.592Z,25.50
2019-04-30T22:25:39.171Z,24.37
2019-04-30T22:28:08.623Z,24.17
2019-04-30T22:30:38.575Z,23.50
2019-04-30T22:33:06.504Z,25.40
2019-04-30T22:35:58.804Z,22.23
2019-04-30T22:38:30.391Z,23.17
2019-04-30T22:40:58.900Z,22.70
2019-04-30T22:43:26.922Z,24.40
2019-04-30T22:45:59.597Z,24.33
2019-04-30T22:48:28.716Z,24.10
2019-04-30T22:50:56.915Z,22.60
2019-04-30T22:53:24.644Z,25.13
2019-04-30T22:55:52.411Z,24.00
2019-04-30T22:58:20.226Z,24.33
2019-04-30T23:00:48.201Z,23.07
2019-04-30T23:03:26.086Z,24.13
2019-04-30T23:05:54.064Z,23.67
2019-04-30T23:08:21.774Z,22.83
2019-04-30T23:10:49.931Z,20.97
2019-04-30T23:13:18.040Z,24.70
2019-04-30T23:15:47.334Z,24.43
2019-04-30T23:18:15.261Z,20.60
2019-04-30T23:20:43.002Z,20.80
2019-04-30T23:23:11.016Z,21.47
2019-04-30T23:25:38.977Z,23.90
2019-04-30T23:28:06.722Z,24.83
2019-04-30T23:30:34.441Z,20.37
2019-04-30T23:33:02.384Z,22.03
2019-04-30T23:35:30.344Z,22.13
2019-04-30T23:38:03.372Z,26.13
2019-04-30T23:40:47.011Z,22.37
2019-04-30T23:43:16.399Z,21.80
2019-04-30T23:45:44.143Z,21.90
2019-04-30T23:48:11.951Z,23.20
2019-04-30T23:50:39.910Z,20.73
2019-04-30T23:53:07.630Z,21.13
2019-04-30T23:55:35.364Z,24.10
2019-04-30T23:58:03.183Z,21.20
